Time;durP1;ratioP1;P1;durP2;ratioP2;P2;SDS_P1;SDS_P2;PMS_P1;PMS_P2;Temp;Humidity;BMP_temperature;BMP_pressure;BME280_temperature;BME280_humidity;BME280_pressure;Samples;Min_cycle;Max_cycle;Signal;HPM_P1;HPM_P2
2023/07/04 00:01:04;;;;;;;4.68;1.70;;;19.80;50.30;;;;;;5049259;28;20695;-80
2023/07/04 00:03:31;;;;;;;5.95;1.70;;;19.70;50.90;;;;;;5051028;28;20512;-82
2023/07/04 00:05:58;;;;;;;8.05;1.85;;;19.70;50.30;;;;;;5042845;28;20055;-80
2023/07/04 00:08:26;;;;;;;6.75;2.35;;;19.70;50.40;;;;;;5041456;28;20424;-80
2023/07/04 00:10:56;;;;;;;4.43;1.55;;;19.70;50.50;;;;;;5026468;28;20044;-82
2023/07/04 00:13:22;;;;;;;5.20;1.80;;;19.70;50.50;;;;;;5051131;28;20029;-81
2023/07/04 00:15:51;;;;;;;7.05;1.80;;;19.60;50.40;;;;;;5041505;28;20409;-82
2023/07/04 00:18:20;;;;;;;5.75;1.73;;;19.60;50.40;;;;;;5024715;28;20128;-83
2023/07/04 00:20:54;;;;;;;3.80;2.03;;;19.60;50.50;;;;;;5039947;28;20036;-83
2023/07/04 00:23:26;;;;;;;5.25;1.70;;;19.60;50.60;;;;;;5039800;28;20037;-82
2023/07/04 00:25:52;;;;;;;5.63;1.50;;;19.60;50.70;;;;;;5042104;28;20100;-83
2023/07/04 00:28:21;;;;;;;5.72;2.03;;;19.50;50.50;;;;;;5040648;28;20102;-82
2023/07/04 00:30:54;;;;;;;3.78;1.95;;;19.50;50.50;;;;;;5016108;28;20439;-82
2023/07/04 00:33:22;;;;;;;4.35;1.85;;;19.50;50.60;;;;;;5049014;28;20048;-83
2023/07/04 00:35:49;;;;;;;4.22;1.75;;;19.50;50.60;;;;;;5036591;28;20036;-83
2023/07/04 00:38:19;;;;;;;4.45;2.25;;;19.50;50.70;;;;;;5035032;28;20066;-82
2023/07/04 00:40:45;;;;;;;4.65;1.50;;;19.50;50.80;;;;;;5009798;28;20036;-81
2023/07/04 00:43:12;;;;;;;6.68;1.60;;;19.40;50.60;;;;;;5040554;28;20426;-81
2023/07/04 00:45:43;;;;;;;3.67;1.60;;;19.40;50.70;;;;;;5039454;28;20850;-81
2023/07/04 00:48:13;;;;;;;5.70;2.38;;;19.40;50.80;;;;;;5022015;28;20527;-82
2023/07/04 00:50:44;;;;;;;5.72;1.52;;;19.40;50.80;;;;;;5021266;28;20032;-81
2023/07/04 00:53:12;;;;;;;4.30;2.17;;;19.40;50.90;;;;;;5016261;28;20511;-81
2023/07/04 00:55:41;;;;;;;3.50;1.48;;;19.30;50.80;;;;;;5037809;28;20044;-81
2023/07/04 00:58:07;;;;;;;2.38;1.25;;;19.30;50.90;;;;;;5059965;28;20039;-81
2023/07/04 01:00:36;;;;;;;3.00;1.55;;;19.30;51.20;;;;;;5042094;28;20546;-81
2023/07/04 01:03:07;;;;;;;5.15;1.58;;;19.30;51.00;;;;;;5033438;28;20496;-81
2023/07/04 01:05:51;;;;;;;4.70;1.98;;;19.30;51.10;;;;;;5034363;28;20052;-81
2023/07/04 01:08:27;;;;;;;4.28;1.88;;;19.30;51.20;;;;;;5043139;28;20028;-81
2023/07/04 01:10:55;;;;;;;6.72;1.98;;;19.30;51.30;;;;;;5045633;28;20544;-81
2023/07/04 01:13:47;;;;;;;5.38;1.60;;;19.20;51.10;;;;;;5052423;28;20388;-84
2023/07/04 01:16:18;;;;;;;6.50;1.75;;;19.20;51.20;;;;;;5042950;28;20052;-81
2023/07/04 01:18:51;;;;;;;6.05;1.92;;;19.20;51.10;;;;;;5034140;28;20029;-82
2023/07/04 01:21:21;;;;;;;6.55;1.88;;;19.20;51.20;;;;;;5047063;28;20086;-81
2023/07/04 01:24:01;;;;;;;4.70;2.00;;;19.20;51.20;;;;;;5027892;28;20029;-81
2023/07/04 01:26:46;;;;;;;4.90;2.00;;;19.20;51.80;;;;;;5050713;28;20484;-81
2023/07/04 01:29:15;;;;;;;5.93;1.60;;;19.20;51.30;;;;;;5040623;28;20124;-81
2023/07/04 01:31:43;;;;;;;6.20;2.00;;;19.20;51.30;;;;;;5039938;28;20544;-81
2023/07/04 01:34:10;;;;;;;4.80;2.20;;;19.20;51.30;;;;;;5049048;28;20040;-81
2023/07/04 01:36:40;;;;;;;4.43;1.55;;;19.20;51.30;;;;;;5053559;28;20488;-81
2023/07/04 01:39:14;;;;;;;6.13;1.83;;;19.20;51.40;;;;;;5036948;28;20539;-81
2023/07/04 01:41:45;;;;;;;6.57;2.15;;;19.20;51.40;;;;;;5051066;28;20033;-81
2023/07/04 01:44:13;;;;;;;4.80;2.55;;;19.10;51.30;;;;;;5044724;28;20036;-81
2023/07/04 01:46:39;;;;;;;5.07;1.98;;;19.10;51.30;;;;;;5045195;28;20036;-81
2023/07/04 01:49:05;;;;;;;7.07;2.13;;;19.10;51.30;;;;;;5044498;28;20314;-81
2023/07/04 01:51:36;;;;;;;3.83;2.20;;;19.00;51.20;;;;;;5053694;28;20088;-81
2023/07/04 01:54:03;;;;;;;4.13;1.80;;;19.10;51.50;;;;;;5039056;28;20067;-81
2023/07/04 01:56:31;;;;;;;6.57;1.70;;;19.00;51.40;;;;;;5046170;28;20479;-81
2023/07/04 01:58:58;;;;;;;5.63;2.03;;;19.00;51.40;;;;;;5032720;28;20087;-81
2023/07/04 02:01:24;;;;;;;4.45;2.40;;;19.00;52.10;;;;;;5038664;28;20033;-81
2023/07/04 02:03:52;;;;;;;5.95;1.95;;;18.90;51.40;;;;;;5033779;28;20481;-80
2023/07/04 02:06:18;;;;;;;5.32;2.30;;;18.90;51.50;;;;;;5046736;28;20033;-84
2023/07/04 02:08:47;;;;;;;7.03;2.10;;;18.90;51.60;;;;;;5043487;28;20025;-81
2023/07/04 02:11:13;;;;;;;4.15;2.03;;;18.80;51.50;;;;;;5042918;28;20443;-82
2023/07/04 02:13:49;;;;;;;7.82;2.55;;;18.80;51.60;;;;;;5040920;28;20033;-81
2023/07/04 02:16:15;;;;;;;6.15;2.05;;;18.80;51.60;;;;;;5033846;28;20070;-81
2023/07/04 02:18:44;;;;;;;4.68;1.85;;;18.80;51.70;;;;;;5043892;28;20043;-81
2023/07/04 02:21:11;;;;;;;8.23;2.35;;;18.80;51.70;;;;;;5028527;28;20047;-81
2023/07/04 02:23:40;;;;;;;3.65;1.80;;;18.80;51.80;;;;;;5043943;28;20033;-82
2023/07/04 02:26:07;;;;;;;5.53;1.85;;;18.80;51.90;;;;;;5027317;28;20407;-81
2023/07/04 02:28:36;;;;;;;3.72;1.73;;;18.80;51.90;;;;;;5028521;28;20029;-82
2023/07/04 02:31:02;;;;;;;4.80;1.65;;;18.80;51.90;;;;;;5043178;28;20037;-81
2023/07/04 02:33:29;;;;;;;4.00;1.58;;;18.80;51.90;;;;;;5045006;28;20040;-82
2023/07/04 02:35:58;;;;;;;5.60;2.20;;;18.80;52.00;;;;;;5027165;28;20033;-82
2023/07/04 02:38:24;;;;;;;5.43;2.22;;;18.80;52.00;;;;;;5026819;28;20043;-83
2023/07/04 02:41:00;;;;;;;3.65;1.63;;;18.80;52.00;;;;;;5044245;28;20120;-82
2023/07/04 02:43:26;;;;;;;3.53;1.98;;;18.70;51.70;;;;;;5025827;28;20060;-83
2023/07/04 02:45:52;;;;;;;2.97;1.67;;;18.70;52.40;;;;;;5042668;28;20792;-82
2023/07/04 02:48:19;;;;;;;6.78;2.03;;;18.80;52.00;;;;;;5030450;28;20029;-82
2023/07/04 02:50:46;;;;;;;2.45;1.40;;;18.70;51.80;;;;;;5039729;28;20067;-81
2023/07/04 02:53:12;;;;;;;5.32;2.03;;;18.70;51.80;;;;;;5044708;28;20028;-82
2023/07/04 02:55:38;;;;;;;4.13;1.40;;;18.70;51.90;;;;;;5045112;28;20618;-83
2023/07/04 02:58:05;;;;;;;6.03;2.25;;;18.70;51.90;;;;;;5035045;28;20029;-83
2023/07/04 03:00:34;;;;;;;4.07;1.60;;;18.70;51.90;;;;;;5032731;28;20037;-83
2023/07/04 03:03:00;;;;;;;4.13;1.60;;;18.70;51.90;;;;;;5021842;28;20033;-83
2023/07/04 03:05:27;;;;;;;2.90;1.60;;;18.70;52.00;;;;;;5030729;28;20215;-83
2023/07/04 03:07:54;;;;;;;6.60;2.10;;;18.70;52.10;;;;;;5048301;28;20490;-82
2023/07/04 03:10:20;;;;;;;4.07;1.70;;;18.60;51.90;;;;;;5048196;28;20064;-84
2023/07/04 03:12:46;;;;;;;3.58;1.77;;;18.60;52.00;;;;;;5039879;28;20416;-83
2023/07/04 03:15:13;;;;;;;4.13;2.03;;;18.60;52.10;;;;;;5044575;28;20104;-83
2023/07/04 03:17:44;;;;;;;4.80;1.77;;;18.50;51.90;;;;;;5027869;28;20097;-82
2023/07/04 03:20:13;;;;;;;6.43;1.98;;;18.50;52.10;;;;;;5030736;28;20029;-81
2023/07/04 03:22:42;;;;;;;4.80;1.98;;;18.50;52.10;;;;;;5038661;28;20083;-81
2023/07/04 03:25:10;;;;;;;5.28;2.25;;;18.40;52.00;;;;;;5046293;28;20055;-82
2023/07/04 03:27:38;;;;;;;3.90;1.40;;;18.40;52.70;;;;;;5051138;28;20048;-83
2023/07/04 03:30:08;;;;;;;4.13;1.88;;;18.40;52.20;;;;;;5033276;28;20071;-82
2023/07/04 03:32:34;;;;;;;4.38;1.73;;;18.40;52.30;;;;;;5046688;28;20305;-82
2023/07/04 03:35:01;;;;;;;4.55;1.52;;;18.40;52.40;;;;;;5041497;28;20060;-81
2023/07/04 03:37:32;;;;;;;4.25;1.63;;;18.30;52.30;;;;;;5028718;28;20413;-82
2023/07/04 03:40:00;;;;;;;3.63;1.60;;;18.30;52.30;;;;;;5046483;28;20029;-82
2023/07/04 03:42:26;;;;;;;2.50;1.77;;;18.30;52.40;;;;;;5037387;28;20341;-82
2023/07/04 03:44:53;;;;;;;3.42;1.52;;;18.30;52.50;;;;;;5029432;28;20040;-81
2023/07/04 03:47:21;;;;;;;5.53;2.28;;;18.30;52.50;;;;;;5044549;28;20032;-82
2023/07/04 03:49:47;;;;;;;3.92;1.70;;;18.30;52.60;;;;;;5030648;28;20662;-83
2023/07/04 03:52:13;;;;;;;3.50;1.73;;;18.20;52.50;;;;;;5019705;28;20075;-84
2023/07/04 03:54:40;;;;;;;3.17;1.67;;;18.20;52.50;;;;;;5053488;28;20033;-83
2023/07/04 03:57:06;;;;;;;3.78;2.25;;;18.20;52.60;;;;;;5039260;28;20035;-84
2023/07/04 03:59:32;;;;;;;3.08;1.60;;;18.20;52.70;;;;;;5049348;28;20499;-83
2023/07/04 04:01:58;;;;;;;4.78;1.50;;;18.20;52.70;;;;;;5053195;28;20135;-82
2023/07/04 04:04:24;;;;;;;5.75;2.00;;;18.10;52.70;;;;;;5055778;28;20555;-81
2023/07/04 04:06:51;;;;;;;5.93;2.22;;;18.10;52.80;;;;;;5051696;28;20046;-81
2023/07/04 04:09:17;;;;;;;5.00;1.90;;;18.10;52.80;;;;;;5051478;28;20059;-82
2023/07/04 04:11:43;;;;;;;5.93;2.25;;;18.00;52.70;;;;;;5049405;28;20457;-82
2023/07/04 04:14:09;;;;;;;6.45;1.70;;;18.00;52.80;;;;;;5047744;28;20031;-83
2023/07/04 04:16:36;;;;;;;5.13;2.03;;;18.00;52.90;;;;;;5049444;28;20047;-83
2023/07/04 04:19:01;;;;;;;4.50;1.83;;;17.90;52.90;;;;;;5046356;28;20061;-82
2023/07/04 04:21:28;;;;;;;5.47;2.25;;;17.90;52.90;;;;;;5050334;28;20072;-79
2023/07/04 04:23:54;;;;;;;3.67;1.70;;;17.90;53.10;;;;;;5059631;28;20121;-80
2023/07/04 04:26:21;;;;;;;3.67;1.95;;;17.90;53.20;;;;;;5046882;28;20047;-82
2023/07/04 04:28:48;;;;;;;3.60;1.50;;;17.80;53.00;;;;;;5051837;28;20027;-86
2023/07/04 04:31:15;;;;;;;4.13;1.52;;;17.80;53.10;;;;;;5051285;28;20029;-84
2023/07/04 04:33:41;;;;;;;3.55;1.92;;;17.80;53.20;;;;;;5046514;28;20207;-80
2023/07/04 04:36:07;;;;;;;4.10;2.05;;;17.70;53.10;;;;;;5043524;28;20489;-83
2023/07/04 04:38:36;;;;;;;3.22;1.83;;;17.70;53.20;;;;;;5045408;28;20193;-80
2023/07/04 04:41:06;;;;;;;3.45;1.40;;;17.70;53.20;;;;;;5046803;28;20021;-80
2023/07/04 04:43:32;;;;;;;4.38;1.58;;;17.60;53.10;;;;;;5062267;28;20124;-79
2023/07/04 04:46:02;;;;;;;3.35;1.73;;;17.70;53.30;;;;;;5056764;28;20068;-79
2023/07/04 04:48:35;;;;;;;3.60;1.70;;;17.70;53.50;;;;;;5029177;28;20116;-79
2023/07/04 04:51:10;;;;;;;5.10;2.17;;;17.60;53.30;;;;;;5043082;28;20277;-81
2023/07/04 04:53:37;;;;;;;3.50;1.65;;;17.60;53.40;;;;;;5034247;28;20425;-82
2023/07/04 04:56:04;;;;;;;4.65;1.80;;;17.60;53.40;;;;;;5035304;28;20092;-83
2023/07/04 04:58:31;;;;;;;5.18;1.45;;;17.60;53.40;;;;;;5043626;28;20091;-81
2023/07/04 05:00:56;;;;;;;4.20;1.95;;;17.60;53.50;;;;;;5034119;28;20039;-82
2023/07/04 05:03:23;;;;;;;4.95;1.80;;;17.60;53.50;;;;;;5042268;28;20744;-81
2023/07/04 05:05:49;;;;;;;4.30;1.90;;;17.60;53.60;;;;;;5033233;28;20040;-81
2023/07/04 05:08:15;;;;;;;6.53;2.05;;;17.60;53.60;;;;;;5046380;28;20029;-80
2023/07/04 05:10:41;;;;;;;5.35;2.00;;;17.60;53.60;;;;;;5045101;28;20515;-80
2023/07/04 05:13:06;;;;;;;7.15;2.03;;;17.60;53.60;;;;;;5040545;28;20071;-80
2023/07/04 05:15:33;;;;;;;2.60;1.98;;;17.60;53.60;;;;;;5041845;28;20028;-80
2023/07/04 05:17:59;;;;;;;4.68;1.55;;;17.60;53.60;;;;;;5028064;28;20040;-79
2023/07/04 05:20:25;;;;;;;4.28;1.80;;;17.60;53.60;;;;;;5045314;28;20101;-79
2023/07/04 05:22:56;;;;;;;2.85;2.05;;;17.60;53.70;;;;;;5044775;28;20044;-79
2023/07/04 05:25:23;;;;;;;3.97;1.63;;;17.60;53.70;;;;;;5040623;28;20040;-79
2023/07/04 05:27:51;;;;;;;2.67;1.60;;;17.60;53.70;;;;;;5033569;28;20506;-80
2023/07/04 05:30:17;;;;;;;3.78;1.52;;;17.60;53.70;;;;;;5045674;28;20124;-80
2023/07/04 05:32:43;;;;;;;4.55;2.42;;;17.60;53.70;;;;;;5046648;28;20388;-80
2023/07/04 05:35:09;;;;;;;4.50;2.00;;;17.60;53.70;;;;;;5042642;28;20506;-79
2023/07/04 05:37:35;;;;;;;2.00;1.23;;;17.60;53.70;;;;;;5049080;28;20036;-82
2023/07/04 05:40:00;;;;;;;4.90;1.98;;;17.60;53.80;;;;;;5041208;28;20043;-81
2023/07/04 05:42:28;;;;;;;3.05;2.17;;;17.60;53.80;;;;;;5044447;28;20028;-81
2023/07/04 05:44:53;;;;;;;5.47;1.88;;;17.60;53.90;;;;;;5039819;28;20041;-80
2023/07/04 05:47:19;;;;;;;2.97;1.50;;;17.60;53.90;;;;;;5034018;28;20085;-81
2023/07/04 05:49:45;;;;;;;3.20;1.77;;;17.60;53.90;;;;;;5044948;28;20037;-79
2023/07/04 05:52:11;;;;;;;5.22;2.20;;;17.60;53.90;;;;;;5045996;28;20036;-78
2023/07/04 05:54:37;;;;;;;4.07;1.63;;;17.60;53.90;;;;;;5044310;28;20056;-79
2023/07/04 05:57:03;;;;;;;5.18;1.73;;;17.60;53.90;;;;;;5029001;28;20024;-80
2023/07/04 05:59:30;;;;;;;3.45;1.65;;;17.60;53.90;;;;;;5044245;28;20052;-80
2023/07/04 06:01:58;;;;;;;3.40;1.50;;;17.60;53.90;;;;;;5048112;28;20672;-80
2023/07/04 06:04:24;;;;;;;2.40;1.60;;;17.60;54.00;;;;;;5049107;28;20032;-80
2023/07/04 06:06:53;;;;;;;2.45;1.65;;;17.70;54.20;;;;;;5052760;28;20060;-79
2023/07/04 06:09:20;;;;;;;3.97;2.08;;;17.60;53.90;;;;;;5048625;28;20039;-80
2023/07/04 06:11:48;;;;;;;5.63;2.40;;;17.60;53.90;;;;;;5049425;28;20033;-80
2023/07/04 06:14:18;;;;;;;3.60;1.73;;;17.60;54.00;;;;;;5055375;28;20679;-81
2023/07/04 06:16:44;;;;;;;3.35;1.98;;;17.60;54.00;;;;;;5046913;28;20076;-79
2023/07/04 06:19:10;;;;;;;4.05;1.88;;;17.60;54.00;;;;;;5044210;28;20041;-80
2023/07/04 06:21:36;;;;;;;3.53;1.85;;;17.60;53.90;;;;;;5028188;28;20661;-79
2023/07/04 06:24:02;;;;;;;3.33;1.90;;;17.70;54.10;;;;;;5037723;28;20097;-81
2023/07/04 06:26:32;;;;;;;4.00;1.95;;;17.70;54.20;;;;;;5052010;28;20037;-80
2023/07/04 06:28:58;;;;;;;4.40;1.98;;;17.60;54.00;;;;;;5052095;28;20040;-78
2023/07/04 06:31:25;;;;;;;8.70;2.63;;;17.60;54.00;;;;;;5040594;28;20468;-77
2023/07/04 06:33:53;;;;;;;6.60;1.85;;;17.60;54.00;;;;;;5043587;28;20032;-79
2023/07/04 06:36:20;;;;;;;4.38;2.00;;;17.50;54.00;;;;;;5036334;28;20467;-77
2023/07/04 06:38:46;;;;;;;5.43;2.22;;;17.60;54.20;;;;;;5047449;28;20116;-78
2023/07/04 06:41:14;;;;;;;3.95;1.98;;;17.50;54.10;;;;;;5049142;28;20051;-76
2023/07/04 06:43:43;;;;;;;4.32;1.95;;;17.50;54.20;;;;;;5048519;28;20045;-77
2023/07/04 06:46:20;;;;;;;4.20;1.83;;;17.50;54.30;;;;;;5049493;28;20059;-78
2023/07/04 06:48:47;;;;;;;2.97;1.65;;;17.50;54.50;;;;;;5055609;28;20131;-76
2023/07/04 06:51:15;;;;;;;4.65;1.77;;;17.50;54.50;;;;;;5024072;28;20047;-78
2023/07/04 06:53:41;;;;;;;4.47;1.65;;;17.50;54.60;;;;;;5049978;28;20029;-78
2023/07/04 06:56:19;;;;;;;3.78;1.65;;;17.40;54.50;;;;;;5039896;28;20221;-79
2023/07/04 06:58:51;;;;;;;5.45;2.08;;;17.40;54.70;;;;;;5047872;28;20048;-78
2023/07/04 07:01:26;;;;;;;3.40;2.00;;;17.40;54.70;;;;;;5041088;28;20025;-78
2023/07/04 07:03:53;;;;;;;3.65;1.70;;;17.40;54.70;;;;;;5037195;28;20111;-78
2023/07/04 07:06:19;;;;;;;3.65;2.13;;;17.40;54.70;;;;;;5034099;28;20076;-79
2023/07/04 07:08:45;;;;;;;3.45;2.15;;;17.50;55.00;;;;;;5047954;28;20118;-79
2023/07/04 07:11:14;;;;;;;5.60;2.45;;;17.40;54.90;;;;;;5039710;28;20574;-76
2023/07/04 07:13:41;;;;;;;3.97;1.92;;;17.40;54.90;;;;;;5040172;28;20504;-76
2023/07/04 07:16:18;;;;;;;4.43;1.98;;;17.50;55.10;;;;;;5040157;28;20037;-77
2023/07/04 07:18:45;;;;;;;5.90;1.95;;;17.50;55.30;;;;;;5043383;28;20044;-75
2023/07/04 07:21:14;;;;;;;4.60;1.90;;;17.50;55.20;;;;;;5044246;28;20040;-78
2023/07/04 07:23:41;;;;;;;3.72;2.20;;;17.50;55.20;;;;;;5031785;28;20024;-77
2023/07/04 07:26:12;;;;;;;3.20;1.40;;;17.50;55.20;;;;;;5039314;28;20078;-77
2023/07/04 07:28:39;;;;;;;3.65;1.80;;;17.50;55.20;;;;;;5040620;28;20033;-77
2023/07/04 07:31:12;;;;;;;4.38;1.98;;;17.50;55.30;;;;;;5044762;28;20037;-76
2023/07/04 07:33:41;;;;;;;2.80;1.80;;;17.50;55.40;;;;;;5014187;28;20151;-78
2023/07/04 07:36:13;;;;;;;2.85;2.38;;;17.50;55.40;;;;;;5012748;28;20500;-76
2023/07/04 07:38:39;;;;;;;3.03;2.08;;;17.50;55.40;;;;;;5052249;28;20036;-77
2023/07/04 07:41:06;;;;;;;2.95;1.95;;;17.60;55.60;;;;;;5051763;28;20029;-75
2023/07/04 07:43:33;;;;;;;3.97;1.92;;;17.60;55.60;;;;;;5051053;28;20039;-77
2023/07/04 07:45:58;;;;;;;2.50;1.50;;;17.60;55.60;;;;;;5043955;28;20107;-77
2023/07/04 07:48:24;;;;;;;5.45;1.98;;;17.70;55.70;;;;;;5052498;28;20481;-77
2023/07/04 07:50:53;;;;;;;2.95;1.90;;;17.70;55.70;;;;;;5041188;28;20613;-75
2023/07/04 07:53:19;;;;;;;3.60;1.90;;;17.70;55.60;;;;;;5038885;28;20124;-76
2023/07/04 07:55:45;;;;;;;4.50;2.05;;;17.80;55.80;;;;;;5048720;28;20033;-77
2023/07/04 07:58:11;;;;;;;1.45;1.30;;;17.90;56.00;;;;;;5045919;28;20544;-78
2023/07/04 08:00:37;;;;;;;3.95;1.60;;;17.90;55.90;;;;;;5031518;28;20033;-77
2023/07/04 08:03:03;;;;;;;3.15;1.73;;;17.90;55.90;;;;;;5053899;28;20119;-76
2023/07/04 08:05:29;;;;;;;3.92;2.45;;;17.90;55.80;;;;;;5050678;28;20121;-76
2023/07/04 08:07:55;;;;;;;3.15;1.92;;;18.00;56.00;;;;;;5036893;28;20032;-76
2023/07/04 08:10:21;;;;;;;3.05;1.85;;;18.10;56.10;;;;;;5045515;28;20040;-75
2023/07/04 08:12:47;;;;;;;3.13;1.48;;;18.10;56.10;;;;;;5046640;28;20607;-77
2023/07/04 08:15:13;;;;;;;4.28;1.60;;;18.20;56.20;;;;;;5050805;28;20040;-76
2023/07/04 08:17:39;;;;;;;3.58;1.70;;;18.20;56.10;;;;;;5054325;28;20471;-76
2023/07/04 08:20:08;;;;;;;2.67;1.90;;;18.30;56.20;;;;;;5053757;28;20428;-77
2023/07/04 08:22:37;;;;;;;3.20;1.98;;;18.40;56.30;;;;;;5018603;28;20363;-77
2023/07/04 08:25:05;;;;;;;5.00;2.05;;;18.40;56.20;;;;;;5038851;28;20059;-75
2023/07/04 08:27:31;;;;;;;3.55;1.75;;;18.50;56.30;;;;;;5053691;28;20611;-76
2023/07/04 08:29:57;;;;;;;2.65;1.67;;;18.50;56.30;;;;;;5050925;28;20864;-78
2023/07/04 08:32:23;;;;;;;6.35;2.03;;;18.50;56.30;;;;;;5055466;28;20147;-77
2023/07/04 08:34:49;;;;;;;2.13;1.55;;;18.50;56.30;;;;;;5049348;28;20441;-77
2023/07/04 08:37:17;;;;;;;3.50;2.05;;;18.60;56.50;;;;;;5051314;28;20043;-75
2023/07/04 08:39:46;;;;;;;1.90;1.27;;;18.60;56.50;;;;;;5045686;28;20471;-77
2023/07/04 08:42:17;;;;;;;3.08;1.77;;;18.60;56.50;;;;;;5047495;28;20569;-76
2023/07/04 08:44:52;;;;;;;2.40;1.77;;;18.60;56.60;;;;;;5045885;28;20032;-76
2023/07/04 08:47:25;;;;;;;4.25;1.90;;;18.60;56.60;;;;;;5051446;28;20180;-78
2023/07/04 08:49:56;;;;;;;3.63;2.00;;;18.60;56.60;;;;;;5029761;28;20325;-77
2023/07/04 08:52:29;;;;;;;4.30;2.65;;;18.60;56.70;;;;;;5037017;28;20052;-78
2023/07/04 08:54:55;;;;;;;2.78;1.52;;;18.60;56.70;;;;;;5044160;28;20040;-77
2023/07/04 08:57:40;;;;;;;2.65;1.92;;;18.60;56.80;;;;;;5043659;28;20098;-77
2023/07/04 09:00:13;;;;;;;2.72;1.60;;;18.60;56.90;;;;;;5038839;28;20198;-77
2023/07/04 09:03:04;;;;;;;2.67;1.70;;;18.60;56.80;;;;;;5052006;28;20137;-79
2023/07/04 09:05:36;;;;;;;4.57;2.63;;;18.60;56.80;;;;;;5046749;28;20595;-78
2023/07/04 09:08:27;;;;;;;1.92;1.55;;;18.60;56.80;;;;;;5049423;28;20123;-81
2023/07/04 09:10:59;;;;;;;3.03;1.77;;;18.70;57.10;;;;;;5044368;28;20734;-81
2023/07/04 09:13:32;;;;;;;2.90;2.20;;;18.70;57.00;;;;;;5053587;28;20244;-79
2023/07/04 09:16:04;;;;;;;5.70;2.88;;;18.70;56.90;;;;;;5053570;28;20048;-80
2023/07/04 09:18:54;;;;;;;1.77;1.50;;;18.70;56.80;;;;;;5044855;28;20078;-79
2023/07/04 09:21:22;;;;;;;3.08;2.10;;;18.80;57.00;;;;;;5033116;28;20084;-81
2023/07/04 09:23:50;;;;;;;3.35;1.63;;;18.80;57.50;;;;;;5048580;28;20043;-78
2023/07/04 09:26:24;;;;;;;3.35;1.67;;;18.80;57.50;;;;;;5051342;28;20044;-79
2023/07/04 09:29:06;;;;;;;3.17;1.85;;;18.80;57.00;;;;;;5035981;28;20059;-76
2023/07/04 09:31:39;;;;;;;1.52;1.23;;;18.80;56.90;;;;;;5033420;28;20102;-76
2023/07/04 09:34:36;;;;;;;3.25;1.88;;;18.80;56.90;;;;;;5029981;28;20116;-77
2023/07/04 09:37:10;;;;;;;1.88;1.50;;;18.80;57.00;;;;;;5034563;28;20033;-76
2023/07/04 09:39:45;;;;;;;2.63;1.30;;;18.80;56.90;;;;;;5031329;28;20032;-77
2023/07/04 09:42:11;;;;;;;3.38;1.75;;;18.80;56.80;;;;;;5048815;28;20044;-77
2023/07/04 09:44:38;;;;;;;1.70;1.45;;;18.90;57.00;;;;;;5031336;28;20041;-75
2023/07/04 09:47:07;;;;;;;4.43;1.35;;;18.90;57.00;;;;;;5048991;28;20055;-76
2023/07/04 09:50:13;;;;;;;1.85;1.50;;;18.90;56.90;;;;;;5054592;28;20049;-76
2023/07/04 09:52:40;;;;;;;3.05;1.60;;;19.00;57.10;;;;;;5047823;28;20037;-76
2023/07/04 09:55:26;;;;;;;2.00;1.20;;;19.00;56.90;;;;;;5030029;28;20036;-77
2023/07/04 09:57:52;;;;;;;1.95;1.10;;;19.00;57.00;;;;;;5043288;28;20245;-78
2023/07/04 10:00:24;;;;;;;1.33;1.08;;;19.00;56.90;;;;;;5044377;28;20114;-77
2023/07/04 10:02:56;;;;;;;3.40;1.92;;;19.00;56.90;;;;;;5046652;28;20028;-80
2023/07/04 10:05:35;;;;;;;2.55;1.67;;;19.00;56.90;;;;;;5040051;28;20098;-79
2023/07/04 10:08:15;;;;;;;1.85;1.55;;;19.00;56.90;;;;;;5026805;28;20028;-77
2023/07/04 10:10:55;;;;;;;2.17;1.42;;;19.00;57.40;;;;;;5038479;28;20528;-78
2023/07/04 10:13:35;;;;;;;2.22;1.65;;;19.00;56.80;;;;;;5028681;28;20501;-82
2023/07/04 10:16:17;;;;;;;1.58;1.00;;;19.00;56.80;;;;;;5035917;28;20073;-78
2023/07/04 10:18:43;;;;;;;1.67;1.08;;;19.00;56.80;;;;;;5031036;28;20355;-79
2023/07/04 10:21:12;;;;;;;1.67;1.00;;;18.90;56.70;;;;;;5048461;28;20033;-79
2023/07/04 10:23:38;;;;;;;1.60;1.40;;;18.90;56.80;;;;;;5051295;28;20529;-79
2023/07/04 10:26:06;;;;;;;1.30;0.93;;;18.90;56.90;;;;;;5042080;28;20041;-77
2023/07/04 10:28:33;;;;;;;3.30;2.20;;;18.90;56.90;;;;;;5041708;28;20609;-79
2023/07/04 10:31:14;;;;;;;1.83;1.25;;;19.00;57.10;;;;;;5044830;28;20044;-79
2023/07/04 10:33:51;;;;;;;1.73;1.17;;;19.00;57.00;;;;;;5033259;28;20079;-81
2023/07/04 10:36:26;;;;;;;1.88;1.42;;;19.10;57.10;;;;;;5034124;28;20048;-79
2023/07/04 10:39:06;;;;;;;1.38;1.13;;;19.20;57.30;;;;;;5033545;28;20032;-78
2023/07/04 10:41:54;;;;;;;4.60;1.88;;;19.40;57.70;;;;;;5040395;28;20040;-78
2023/07/04 10:44:24;;;;;;;3.20;1.15;;;19.50;57.80;;;;;;5028573;28;20118;-78
2023/07/04 10:47:02;;;;;;;2.17;1.23;;;19.70;57.80;;;;;;5040730;28;20052;-80
2023/07/04 10:49:32;;;;;;;2.40;1.10;;;19.80;57.70;;;;;;5048371;28;20029;-79
2023/07/04 10:52:20;;;;;;;1.77;1.40;;;20.00;57.70;;;;;;5046866;28;20075;-79
2023/07/04 10:54:46;;;;;;;1.02;0.77;;;20.10;57.60;;;;;;5045709;28;20468;-82
2023/07/04 10:57:42;;;;;;;1.80;1.30;;;20.20;57.50;;;;;;5046219;28;20345;-80
2023/07/04 11:00:20;;;;;;;1.38;1.00;;;20.20;57.50;;;;;;5051888;28;20039;-80
2023/07/04 11:02:54;;;;;;;1.17;0.90;;;20.20;57.40;;;;;;5047893;28;20072;-81
2023/07/04 11:05:37;;;;;;;2.28;1.58;;;20.10;57.40;;;;;;5046089;28;20041;-80
2023/07/04 11:08:14;;;;;;;1.65;1.02;;;20.10;57.50;;;;;;5037657;28;20040;-78
2023/07/04 11:10:43;;;;;;;2.25;1.45;;;20.00;57.40;;;;;;5039554;28;20091;-79
2023/07/04 11:13:18;;;;;;;1.00;0.90;;;20.00;57.40;;;;;;5050411;28;20036;-79
2023/07/04 11:15:50;;;;;;;1.60;1.38;;;19.90;57.30;;;;;;5030512;28;20448;-79
2023/07/04 11:18:29;;;;;;;2.05;1.15;;;19.90;57.40;;;;;;5047322;28;20182;-78
2023/07/04 11:21:25;;;;;;;2.55;1.48;;;19.80;57.30;;;;;;5052610;28;20879;-78
2023/07/04 11:24:09;;;;;;;2.20;1.42;;;19.70;57.30;;;;;;5043607;28;20360;-80
2023/07/04 11:27:00;;;;;;;2.60;1.45;;;19.80;57.50;;;;;;5053915;28;20076;-78
2023/07/04 11:29:45;;;;;;;1.75;1.60;;;19.80;57.50;;;;;;5050860;28;20032;-84
2023/07/04 11:32:17;;;;;;;1.67;1.02;;;19.80;57.50;;;;;;5039654;28;20056;-80
2023/07/04 11:34:54;;;;;;;2.40;1.23;;;19.80;57.40;;;;;;5045776;28;20048;-80
2023/07/04 11:37:32;;;;;;;5.00;2.03;;;19.80;57.40;;;;;;5057581;28;20514;-78
2023/07/04 11:40:02;;;;;;;2.72;1.60;;;19.90;57.50;;;;;;5032785;28;20439;-80
2023/07/04 11:42:40;;;;;;;2.78;1.73;;;19.90;57.30;;;;;;5041968;28;20039;-79
2023/07/04 11:45:14;;;;;;;2.75;2.30;;;19.90;57.20;;;;;;5049529;28;20055;-79
2023/07/04 11:47:49;;;;;;;2.47;1.48;;;20.00;57.40;;;;;;5036757;28;20052;-79
2023/07/04 11:50:27;;;;;;;3.03;1.80;;;20.00;57.40;;;;;;5051666;28;20101;-78
2023/07/04 11:52:58;;;;;;;3.17;1.95;;;20.00;57.30;;;;;;5046308;28;20124;-80
2023/07/04 11:55:30;;;;;;;3.63;1.80;;;20.00;57.30;;;;;;5041641;28;20508;-79
2023/07/04 11:58:02;;;;;;;2.42;1.65;;;20.00;57.40;;;;;;5036431;28;20029;-79
2023/07/04 12:00:40;;;;;;;2.72;1.60;;;20.10;57.60;;;;;;5047183;28;20734;-79
2023/07/04 12:03:18;;;;;;;3.95;1.85;;;20.20;57.60;;;;;;5049580;28;20512;-80
2023/07/04 12:05:45;;;;;;;4.15;1.70;;;20.40;57.80;;;;;;5025712;28;20065;-80
2023/07/04 12:08:17;;;;;;;2.10;1.90;;;20.60;57.70;;;;;;5046412;28;20042;-80
2023/07/04 12:10:43;;;;;;;3.42;2.20;;;20.90;57.90;;;;;;5028546;28;20032;-79
2023/07/04 12:13:09;;;;;;;4.35;1.80;;;21.20;57.80;;;;;;5042339;28;20028;-80
2023/07/04 12:15:38;;;;;;;3.38;1.90;;;21.50;57.80;;;;;;5043090;28;20064;-80
2023/07/04 12:18:29;;;;;;;4.15;1.95;;;21.60;57.60;;;;;;5043713;28;20025;-78
2023/07/04 12:20:58;;;;;;;2.83;1.95;;;21.90;57.90;;;;;;5040242;28;20037;-79
2023/07/04 12:23:46;;;;;;;4.20;2.20;;;22.00;57.70;;;;;;5039654;28;20028;-79
2023/07/04 12:26:22;;;;;;;3.22;1.92;;;22.10;57.70;;;;;;5023325;28;20492;-79
2023/07/04 12:28:54;;;;;;;5.18;2.30;;;22.10;57.60;;;;;;5041751;28;20033;-79
2023/07/04 12:31:20;;;;;;;4.65;2.20;;;22.10;57.40;;;;;;5046122;28;20328;-78
2023/07/04 12:33:52;;;;;;;4.13;2.63;;;22.20;57.50;;;;;;5027015;28;20508;-78
2023/07/04 12:36:31;;;;;;;4.57;2.47;;;22.20;57.50;;;;;;5034907;28;20051;-78
2023/07/04 12:39:03;;;;;;;3.65;2.25;;;22.20;57.50;;;;;;5028907;28;20496;-79
2023/07/04 12:41:32;;;;;;;3.50;2.50;;;22.20;57.50;;;;;;5040355;28;20040;-78
2023/07/04 12:44:03;;;;;;;2.22;1.70;;;22.20;57.50;;;;;;5039186;28;20400;-79
2023/07/04 12:46:36;;;;;;;2.20;2.00;;;22.20;57.40;;;;;;5021698;28;20553;-77
2023/07/04 12:49:17;;;;;;;4.13;1.77;;;22.20;57.40;;;;;;5049098;28;20111;-79
2023/07/04 12:51:51;;;;;;;4.93;2.80;;;22.20;57.40;;;;;;5045465;28;20131;-78
2023/07/04 12:54:20;;;;;;;2.95;2.50;;;22.20;57.40;;;;;;5041853;28;20037;-78
2023/07/04 12:56:47;;;;;;;3.53;2.60;;;22.20;57.50;;;;;;5032029;28;20060;-78
2023/07/04 12:59:36;;;;;;;3.08;2.22;;;22.20;57.50;;;;;;5034043;28;20439;-80
2023/07/04 13:02:22;;;;;;;3.28;2.55;;;22.20;57.50;;;;;;5057032;28;20036;-78
2023/07/04 13:04:54;;;;;;;3.55;2.20;;;22.20;57.40;;;;;;5053128;28;20033;-77